TimeMST,TemperatureF,Dew PointF,Humidity,Sea Level PressureIn,VisibilityMPH,Wind Direction,Wind SpeedMPH,Gust SpeedMPH,PrecipitationIn,Events,Conditions,WindDirDegrees,DateUTC
12:53 AM,26.1,15.1,63,29.78,10.0,SW,19.6,27.6,N/A,,Overcast,230,2012-12-08 07:53:00
1:53 AM,25.0,15.1,66,29.79,10.0,SW,11.5,-,N/A,,Overcast,230,2012-12-08 08:53:00
2:53 AM,26.1,15.1,63,29.75,10.0,SSW,11.5,-,N/A,,Overcast,200,2012-12-08 09:53:00
4:53 AM,27.0,14.0,58,29.70,10.0,SW,16.1,-,N/A,,Overcast,220,2012-12-08 11:53:00
5:53 AM,27.0,12.9,56,29.70,10.0,SW,23.0,-,N/A,,Overcast,230,2012-12-08 12:53:00
6:53 AM,27.0,16.0,63,29.71,10.0,WSW,21.9,31.1,N/A,,Mostly Cloudy,240,2012-12-08 13:53:00
7:53 AM,27.0,17.1,66,29.69,10.0,WSW,21.9,33.4,N/A,,Mostly Cloudy,240,2012-12-08 14:53:00
8:53 AM,28.0,19.0,69,29.69,10.0,WSW,26.5,32.2,N/A,,Overcast,250,2012-12-08 15:53:00
9:27 AM,26.6,21.2,80,29.67,1.8,WSW,13.8,-,0.00,Snow,Light Snow,250,2012-12-08 16:27:00
9:38 AM,26.6,23.0,86,29.67,0.5,West,10.4,-,0.00,Fog-Snow,Snow,270,2012-12-08 16:38:00
9:49 AM,26.6,23.0,86,29.67,1.0,NNW,12.7,-,0.00,Snow,Light Snow,330,2012-12-08 16:49:00
9:53 AM,24.1,21.9,91,29.76,0.5,NW,17.3,20.7,0.00,Fog-Snow,Snow,310,2012-12-08 16:53:00
10:01 AM,23.0,21.2,93,29.67,0.2,WNW,24.2,33.4,0.00,Fog-Snow,Heavy Snow,300,2012-12-08 17:01:00
10:21 AM,24.8,21.2,86,29.68,0.8,NW,17.3,-,0.00,Snow,Light Snow,310,2012-12-08 17:21:00
10:28 AM,24.8,21.2,86,29.67,2.0,NW,16.1,-,0.00,Snow,Light Snow,310,2012-12-08 17:28:00
10:30 AM,24.8,21.2,86,29.67,4.0,NW,15.0,-,0.00,Snow,Light Snow,310,2012-12-08 17:30:00
10:53 AM,25.0,21.0,85,29.74,4.0,NW,12.7,-,0.00,Snow,Light Snow,310,2012-12-08 17:53:00
11:09 AM,24.8,21.2,86,29.67,2.5,WNW,11.5,-,0.00,Snow,Light Snow,300,2012-12-08 18:09:00
11:17 AM,24.8,21.2,86,29.66,1.0,NW,12.7,-,0.00,Snow,Light Snow,310,2012-12-08 18:17:00
11:53 AM,24.1,21.0,88,29.69,1.2,WNW,15.0,-,0.00,Snow,Light Snow,290,2012-12-08 18:53:00
12:07 PM,23.0,19.4,86,29.65,0.5,West,19.6,-,0.00,Fog-Snow,Snow,280,2012-12-08 19:07:00
12:16 PM,23.0,21.2,93,29.65,0.5,West,15.0,-,0.00,Fog-Snow,Snow,280,2012-12-08 19:16:00
12:30 PM,24.8,21.2,86,29.63,0.8,West,21.9,-,0.00,Snow,Light Snow,280,2012-12-08 19:30:00
12:35 PM,24.8,21.2,86,29.64,1.0,West,20.7,-,0.00,Snow,Light Snow,270,2012-12-08 19:35:00
12:47 PM,24.8,19.4,80,29.63,3.0,West,20.7,-,0.00,Snow,Light Snow,280,2012-12-08 19:47:00
12:53 PM,24.1,19.0,81,29.68,9.0,West,25.3,29.9,0.00,,Overcast,280,2012-12-08 19:53:00
1:02 PM,24.8,17.6,74,29.63,10.0,West,24.2,32.2,N/A,,Mostly Cloudy,280,2012-12-08 20:02:00
1:53 PM,24.1,15.1,69,29.68,10.0,WNW,25.3,31.1,N/A,,Overcast,290,2012-12-08 20:53:00
2:53 PM,21.9,17.1,82,29.71,10.0,NW,24.2,32.2,N/A,,Overcast,320,2012-12-08 21:53:00
3:06 PM,19.4,15.8,86,29.67,1.8,NW,35.7,42.6,0.00,,Overcast,320,2012-12-08 22:06:00
3:17 PM,19.4,15.8,86,29.68,0.8,NW,29.9,42.6,0.00,Snow,Light Snow,320,2012-12-08 22:17:00
3:21 PM,19.4,15.8,86,29.68,1.0,NW,28.8,42.6,0.00,Snow,Light Snow,320,2012-12-08 22:21:00
3:27 PM,17.6,15.8,93,29.69,2.0,NW,27.6,36.8,0.00,Snow,Light Snow,310,2012-12-08 22:27:00
3:36 PM,17.6,14.0,86,29.69,8.0,NW,28.8,35.7,0.00,,Overcast,320,2012-12-08 22:36:00
3:53 PM,17.1,12.0,81,29.76,8.0,NW,28.8,39.1,0.00,,Overcast,320,2012-12-08 22:53:00
4:53 PM,17.1,3.9,56,29.81,10.0,WNW,21.9,-,N/A,,Mostly Cloudy,300,2012-12-08 23:53:00
5:53 PM,16.0,-0.9,47,29.85,10.0,WNW,21.9,31.1,N/A,,Overcast,300,2012-12-09 00:53:00
6:53 PM,15.1,-0.0,51,29.90,10.0,WNW,20.7,-,N/A,,Overcast,290,2012-12-09 01:53:00
7:53 PM,12.9,1.0,59,29.94,10.0,WNW,13.8,-,N/A,,Mostly Cloudy,290,2012-12-09 02:53:00
8:53 PM,12.9,1.0,59,29.94,10.0,WNW,17.3,-,N/A,,Overcast,290,2012-12-09 03:53:00
9:53 PM,10.9,1.9,67,29.99,10.0,West,15.0,-,N/A,,Mostly Cloudy,280,2012-12-09 04:53:00
10:20 PM,12.2,1.4,62,29.85,10.0,WNW,11.5,-,N/A,,Mostly Cloudy,290,2012-12-09 05:20:00
10:31 PM,10.4,1.4,67,29.85,10.0,WNW,10.4,-,N/A,,Scattered Clouds,300,2012-12-09 05:31:00
10:53 PM,10.0,1.0,67,29.99,10.0,WNW,9.2,-,N/A,,Partly Cloudy,290,2012-12-09 05:53:00
11:53 PM,8.1,-0.0,70,30.01,10.0,WNW,11.5,-,N/A,,Partly Cloudy,290,2012-12-09 06:53:00